sensor_id;sensor_type;location;lat;lon;timestamp;P1;durP1;ratioP1;P2;durP2;ratioP2
74791;SDS011;63319;46.046;17.802;2024-03-22T00:00:01;15.18;;;8.30;;
74791;SDS011;63319;46.046;17.802;2024-03-22T00:03:13;15.30;;;8.00;;
74791;SDS011;63319;46.046;17.802;2024-03-22T00:06:15;17.20;;;8.68;;
74791;SDS011;63319;46.046;17.802;2024-03-22T00:09:17;16.83;;;8.32;;
74791;SDS011;63319;46.046;17.802;2024-03-22T00:12:19;17.33;;;8.57;;
74791;SDS011;63319;46.046;17.802;2024-03-22T00:15:21;17.85;;;9.05;;
74791;SDS011;63319;46.046;17.802;2024-03-22T00:18:23;16.58;;;9.38;;
74791;SDS011;63319;46.046;17.802;2024-03-22T00:21:25;21.80;;;9.57;;
74791;SDS011;63319;46.046;17.802;2024-03-22T00:24:27;16.47;;;9.13;;
74791;SDS011;63319;46.046;17.802;2024-03-22T00:27:29;17.27;;;8.77;;
74791;SDS011;63319;46.046;17.802;2024-03-22T00:30:31;15.93;;;8.95;;
74791;SDS011;63319;46.046;17.802;2024-03-22T00:33:32;18.40;;;8.50;;
74791;SDS011;63319;46.046;17.802;2024-03-22T00:36:34;15.80;;;8.45;;
74791;SDS011;63319;46.046;17.802;2024-03-22T00:39:36;16.98;;;8.40;;
74791;SDS011;63319;46.046;17.802;2024-03-22T00:42:38;17.42;;;8.30;;
74791;SDS011;63319;46.046;17.802;2024-03-22T00:45:41;20.65;;;9.20;;
74791;SDS011;63319;46.046;17.802;2024-03-22T00:48:42;15.55;;;7.90;;
74791;SDS011;63319;46.046;17.802;2024-03-22T00:51:44;17.45;;;8.48;;
74791;SDS011;63319;46.046;17.802;2024-03-22T00:54:47;15.77;;;8.77;;
74791;SDS011;63319;46.046;17.802;2024-03-22T00:57:49;17.77;;;8.98;;
74791;SDS011;63319;46.046;17.802;2024-03-22T01:00:51;16.27;;;8.60;;
74791;SDS011;63319;46.046;17.802;2024-03-22T01:03:53;15.37;;;8.73;;
74791;SDS011;63319;46.046;17.802;2024-03-22T01:06:55;17.67;;;8.25;;
74791;SDS011;63319;46.046;17.802;2024-03-22T01:09:57;16.83;;;7.50;;
74791;SDS011;63319;46.046;17.802;2024-03-22T01:12:59;17.58;;;8.10;;
74791;SDS011;63319;46.046;17.802;2024-03-22T01:16:01;18.52;;;8.27;;
74791;SDS011;63319;46.046;17.802;2024-03-22T01:19:03;18.95;;;8.52;;
74791;SDS011;63319;46.046;17.802;2024-03-22T01:22:05;16.92;;;8.43;;
74791;SDS011;63319;46.046;17.802;2024-03-22T01:25:07;17.57;;;8.70;;
74791;SDS011;63319;46.046;17.802;2024-03-22T01:28:11;19.58;;;8.45;;
74791;SDS011;63319;46.046;17.802;2024-03-22T01:31:13;15.32;;;8.50;;
74791;SDS011;63319;46.046;17.802;2024-03-22T01:34:15;15.80;;;8.43;;
74791;SDS011;63319;46.046;17.802;2024-03-22T01:37:17;16.75;;;7.82;;
74791;SDS011;63319;46.046;17.802;2024-03-22T01:40:18;15.32;;;7.72;;
74791;SDS011;63319;46.046;17.802;2024-03-22T01:43:20;16.88;;;8.65;;
74791;SDS011;63319;46.046;17.802;2024-03-22T01:46:22;15.90;;;7.75;;
74791;SDS011;63319;46.046;17.802;2024-03-22T01:49:24;16.40;;;8.02;;
74791;SDS011;63319;46.046;17.802;2024-03-22T01:52:27;16.50;;;8.40;;
74791;SDS011;63319;46.046;17.802;2024-03-22T01:55:28;15.57;;;8.63;;
74791;SDS011;63319;46.046;17.802;2024-03-22T01:58:30;16.95;;;9.32;;
74791;SDS011;63319;46.046;17.802;2024-03-22T02:01:33;14.07;;;7.47;;
74791;SDS011;63319;46.046;17.802;2024-03-22T02:04:36;16.80;;;8.53;;
74791;SDS011;63319;46.046;17.802;2024-03-22T02:07:38;14.30;;;7.85;;
74791;SDS011;63319;46.046;17.802;2024-03-22T02:10:40;19.60;;;8.85;;
74791;SDS011;63319;46.046;17.802;2024-03-22T02:13:42;19.77;;;10.00;;
74791;SDS011;63319;46.046;17.802;2024-03-22T02:16:44;17.27;;;8.77;;
74791;SDS011;63319;46.046;17.802;2024-03-22T02:19:46;16.77;;;9.27;;
74791;SDS011;63319;46.046;17.802;2024-03-22T02:22:48;21.65;;;9.60;;
74791;SDS011;63319;46.046;17.802;2024-03-22T02:25:50;17.07;;;9.57;;
74791;SDS011;63319;46.046;17.802;2024-03-22T02:28:52;17.77;;;9.02;;
74791;SDS011;63319;46.046;17.802;2024-03-22T02:31:54;15.77;;;8.85;;
74791;SDS011;63319;46.046;17.802;2024-03-22T02:34:56;18.13;;;9.40;;
74791;SDS011;63319;46.046;17.802;2024-03-22T02:37:58;19.52;;;9.43;;
74791;SDS011;63319;46.046;17.802;2024-03-22T02:41:00;15.68;;;8.65;;
74791;SDS011;63319;46.046;17.802;2024-03-22T02:44:02;14.45;;;8.55;;
74791;SDS011;63319;46.046;17.802;2024-03-22T02:47:04;16.88;;;8.10;;
74791;SDS011;63319;46.046;17.802;2024-03-22T02:50:06;15.30;;;7.72;;
74791;SDS011;63319;46.046;17.802;2024-03-22T02:53:08;14.85;;;7.85;;
74791;SDS011;63319;46.046;17.802;2024-03-22T02:56:10;15.27;;;8.13;;
74791;SDS011;63319;46.046;17.802;2024-03-22T02:59:12;17.75;;;8.18;;
74791;SDS011;63319;46.046;17.802;2024-03-22T03:02:14;16.65;;;8.25;;
74791;SDS011;63319;46.046;17.802;2024-03-22T03:05:16;16.53;;;8.57;;
74791;SDS011;63319;46.046;17.802;2024-03-22T03:08:18;15.23;;;8.02;;
74791;SDS011;63319;46.046;17.802;2024-03-22T03:11:20;14.52;;;8.48;;
74791;SDS011;63319;46.046;17.802;2024-03-22T03:14:22;16.17;;;8.45;;
74791;SDS011;63319;46.046;17.802;2024-03-22T03:17:24;16.23;;;8.60;;
74791;SDS011;63319;46.046;17.802;2024-03-22T03:20:26;15.88;;;8.80;;
74791;SDS011;63319;46.046;17.802;2024-03-22T03:23:28;19.00;;;8.95;;
74791;SDS011;63319;46.046;17.802;2024-03-22T03:26:30;15.43;;;8.47;;
74791;SDS011;63319;46.046;17.802;2024-03-22T03:29:32;17.02;;;8.38;;
74791;SDS011;63319;46.046;17.802;2024-03-22T03:32:34;15.35;;;8.00;;
74791;SDS011;63319;46.046;17.802;2024-03-22T03:35:35;14.97;;;7.47;;
74791;SDS011;63319;46.046;17.802;2024-03-22T03:38:37;15.25;;;8.07;;
74791;SDS011;63319;46.046;17.802;2024-03-22T03:41:39;16.33;;;8.02;;
74791;SDS011;63319;46.046;17.802;2024-03-22T03:44:41;16.83;;;9.23;;
74791;SDS011;63319;46.046;17.802;2024-03-22T03:47:43;15.70;;;8.80;;
74791;SDS011;63319;46.046;17.802;2024-03-22T03:50:50;16.23;;;7.88;;
74791;SDS011;63319;46.046;17.802;2024-03-22T03:53:56;14.07;;;8.25;;
74791;SDS011;63319;46.046;17.802;2024-03-22T03:56:58;14.57;;;8.37;;
74791;SDS011;63319;46.046;17.802;2024-03-22T04:00:00;18.77;;;8.35;;
74791;SDS011;63319;46.046;17.802;2024-03-22T04:03:02;16.05;;;8.25;;
74791;SDS011;63319;46.046;17.802;2024-03-22T04:06:04;15.00;;;8.27;;
74791;SDS011;63319;46.046;17.802;2024-03-22T04:09:06;16.77;;;8.35;;
74791;SDS011;63319;46.046;17.802;2024-03-22T04:12:09;13.43;;;7.53;;
74791;SDS011;63319;46.046;17.802;2024-03-22T04:15:12;15.23;;;7.50;;
74791;SDS011;63319;46.046;17.802;2024-03-22T04:18:13;14.98;;;7.85;;
74791;SDS011;63319;46.046;17.802;2024-03-22T04:21:15;17.80;;;7.97;;
74791;SDS011;63319;46.046;17.802;2024-03-22T04:24:17;15.00;;;7.40;;
74791;SDS011;63319;46.046;17.802;2024-03-22T04:27:19;15.67;;;8.03;;
74791;SDS011;63319;46.046;17.802;2024-03-22T04:30:21;14.52;;;8.48;;
74791;SDS011;63319;46.046;17.802;2024-03-22T04:33:23;13.85;;;7.65;;
74791;SDS011;63319;46.046;17.802;2024-03-22T04:36:25;14.20;;;8.47;;
74791;SDS011;63319;46.046;17.802;2024-03-22T04:39:27;15.57;;;8.02;;
74791;SDS011;63319;46.046;17.802;2024-03-22T04:42:28;13.95;;;8.00;;
74791;SDS011;63319;46.046;17.802;2024-03-22T04:45:30;19.77;;;8.68;;
74791;SDS011;63319;46.046;17.802;2024-03-22T04:48:32;13.15;;;8.18;;
74791;SDS011;63319;46.046;17.802;2024-03-22T04:51:34;19.70;;;8.55;;
74791;SDS011;63319;46.046;17.802;2024-03-22T04:54:36;14.82;;;7.97;;
74791;SDS011;63319;46.046;17.802;2024-03-22T04:57:38;15.30;;;8.13;;
74791;SDS011;63319;46.046;17.802;2024-03-22T05:00:41;19.60;;;9.27;;
74791;SDS011;63319;46.046;17.802;2024-03-22T05:03:43;18.23;;;9.25;;
74791;SDS011;63319;46.046;17.802;2024-03-22T05:06:45;23.17;;;11.50;;
74791;SDS011;63319;46.046;17.802;2024-03-22T05:09:47;23.17;;;10.20;;
74791;SDS011;63319;46.046;17.802;2024-03-22T05:12:49;22.75;;;11.90;;
74791;SDS011;63319;46.046;17.802;2024-03-22T05:15:51;24.13;;;13.05;;
74791;SDS011;63319;46.046;17.802;2024-03-22T05:18:52;24.23;;;13.35;;
74791;SDS011;63319;46.046;17.802;2024-03-22T05:21:54;31.63;;;14.07;;
74791;SDS011;63319;46.046;17.802;2024-03-22T05:24:56;26.48;;;13.05;;
74791;SDS011;63319;46.046;17.802;2024-03-22T05:27:58;26.07;;;12.90;;
74791;SDS011;63319;46.046;17.802;2024-03-22T05:30:59;25.63;;;11.45;;
74791;SDS011;63319;46.046;17.802;2024-03-22T05:34:01;22.98;;;11.43;;
74791;SDS011;63319;46.046;17.802;2024-03-22T05:37:03;19.43;;;10.27;;
74791;SDS011;63319;46.046;17.802;2024-03-22T05:40:06;21.48;;;10.75;;
74791;SDS011;63319;46.046;17.802;2024-03-22T05:43:08;17.70;;;11.07;;
74791;SDS011;63319;46.046;17.802;2024-03-22T05:46:10;21.25;;;10.48;;
74791;SDS011;63319;46.046;17.802;2024-03-22T05:49:12;24.27;;;10.98;;
74791;SDS011;63319;46.046;17.802;2024-03-22T05:52:14;18.58;;;9.95;;
74791;SDS011;63319;46.046;17.802;2024-03-22T05:55:16;25.75;;;10.07;;
74791;SDS011;63319;46.046;17.802;2024-03-22T05:58:17;21.47;;;10.37;;
74791;SDS011;63319;46.046;17.802;2024-03-22T06:01:19;19.85;;;9.82;;
74791;SDS011;63319;46.046;17.802;2024-03-22T06:04:21;21.27;;;11.15;;
74791;SDS011;63319;46.046;17.802;2024-03-22T06:07:23;20.20;;;11.43;;
74791;SDS011;63319;46.046;17.802;2024-03-22T06:10:25;22.17;;;9.77;;
74791;SDS011;63319;46.046;17.802;2024-03-22T06:13:27;24.90;;;10.80;;
74791;SDS011;63319;46.046;17.802;2024-03-22T06:16:29;23.20;;;10.60;;
74791;SDS011;63319;46.046;17.802;2024-03-22T06:19:31;25.25;;;9.82;;
74791;SDS011;63319;46.046;17.802;2024-03-22T06:22:33;16.00;;;9.23;;
74791;SDS011;63319;46.046;17.802;2024-03-22T06:25:35;15.77;;;8.35;;
74791;SDS011;63319;46.046;17.802;2024-03-22T06:28:37;15.70;;;8.37;;
74791;SDS011;63319;46.046;17.802;2024-03-22T06:31:39;19.63;;;9.00;;
74791;SDS011;63319;46.046;17.802;2024-03-22T06:34:41;20.20;;;9.07;;
74791;SDS011;63319;46.046;17.802;2024-03-22T06:37:43;20.13;;;9.23;;
74791;SDS011;63319;46.046;17.802;2024-03-22T06:40:45;18.77;;;8.38;;
74791;SDS011;63319;46.046;17.802;2024-03-22T06:43:47;19.77;;;9.23;;
74791;SDS011;63319;46.046;17.802;2024-03-22T06:46:49;18.13;;;10.43;;
74791;SDS011;63319;46.046;17.802;2024-03-22T06:49:51;18.85;;;10.77;;
74791;SDS011;63319;46.046;17.802;2024-03-22T06:52:55;23.02;;;11.07;;
74791;SDS011;63319;46.046;17.802;2024-03-22T06:55:57;22.00;;;10.98;;
74791;SDS011;63319;46.046;17.802;2024-03-22T06:58:59;23.90;;;11.20;;
74791;SDS011;63319;46.046;17.802;2024-03-22T07:02:01;27.75;;;11.15;;
74791;SDS011;63319;46.046;17.802;2024-03-22T07:05:03;22.35;;;10.13;;
74791;SDS011;63319;46.046;17.802;2024-03-22T07:08:05;16.57;;;10.07;;
74791;SDS011;63319;46.046;17.802;2024-03-22T07:11:08;16.17;;;9.75;;
74791;SDS011;63319;46.046;17.802;2024-03-22T07:14:10;16.75;;;9.98;;
74791;SDS011;63319;46.046;17.802;2024-03-22T07:17:12;20.30;;;9.27;;
74791;SDS011;63319;46.046;17.802;2024-03-22T07:20:14;14.20;;;8.00;;
74791;SDS011;63319;46.046;17.802;2024-03-22T07:23:16;14.43;;;8.45;;
74791;SDS011;63319;46.046;17.802;2024-03-22T07:26:18;16.85;;;8.07;;
74791;SDS011;63319;46.046;17.802;2024-03-22T07:29:20;18.47;;;8.10;;
74791;SDS011;63319;46.046;17.802;2024-03-22T07:32:22;17.13;;;9.25;;
74791;SDS011;63319;46.046;17.802;2024-03-22T07:35:24;20.10;;;10.15;;
74791;SDS011;63319;46.046;17.802;2024-03-22T07:38:26;19.47;;;9.93;;
74791;SDS011;63319;46.046;17.802;2024-03-22T07:41:28;18.95;;;11.35;;
74791;SDS011;63319;46.046;17.802;2024-03-22T07:44:30;20.38;;;11.25;;
74791;SDS011;63319;46.046;17.802;2024-03-22T07:47:32;18.10;;;10.82;;
74791;SDS011;63319;46.046;17.802;2024-03-22T07:50:34;18.83;;;9.63;;
74791;SDS011;63319;46.046;17.802;2024-03-22T07:53:36;15.93;;;9.60;;
74791;SDS011;63319;46.046;17.802;2024-03-22T07:56:38;19.50;;;9.77;;
74791;SDS011;63319;46.046;17.802;2024-03-22T07:59:40;21.52;;;10.52;;
74791;SDS011;63319;46.046;17.802;2024-03-22T08:02:42;18.23;;;9.90;;
74791;SDS011;63319;46.046;17.802;2024-03-22T08:05:44;16.65;;;9.90;;
74791;SDS011;63319;46.046;17.802;2024-03-22T08:08:46;18.60;;;10.38;;
74791;SDS011;63319;46.046;17.802;2024-03-22T08:11:47;16.50;;;9.23;;
74791;SDS011;63319;46.046;17.802;2024-03-22T08:14:49;15.90;;;9.90;;
74791;SDS011;63319;46.046;17.802;2024-03-22T08:17:52;15.23;;;9.10;;
74791;SDS011;63319;46.046;17.802;2024-03-22T08:20:53;16.60;;;9.85;;
74791;SDS011;63319;46.046;17.802;2024-03-22T08:23:56;15.77;;;9.50;;
74791;SDS011;63319;46.046;17.802;2024-03-22T08:26:58;14.90;;;8.93;;
74791;SDS011;63319;46.046;17.802;2024-03-22T08:30:00;18.53;;;9.60;;
74791;SDS011;63319;46.046;17.802;2024-03-22T08:33:02;18.55;;;9.95;;
74791;SDS011;63319;46.046;17.802;2024-03-22T08:36:05;16.48;;;9.20;;
74791;SDS011;63319;46.046;17.802;2024-03-22T08:39:07;17.35;;;9.52;;
74791;SDS011;63319;46.046;17.802;2024-03-22T08:42:11;15.37;;;8.90;;
74791;SDS011;63319;46.046;17.802;2024-03-22T08:45:13;16.20;;;9.87;;
74791;SDS011;63319;46.046;17.802;2024-03-22T08:48:14;15.60;;;9.52;;
74791;SDS011;63319;46.046;17.802;2024-03-22T08:51:16;13.63;;;8.27;;
74791;SDS011;63319;46.046;17.802;2024-03-22T08:54:18;15.13;;;8.63;;
74791;SDS011;63319;46.046;17.802;2024-03-22T08:57:20;17.13;;;9.80;;
74791;SDS011;63319;46.046;17.802;2024-03-22T09:00:23;14.83;;;9.70;;
74791;SDS011;63319;46.046;17.802;2024-03-22T09:03:25;14.75;;;8.73;;
74791;SDS011;63319;46.046;17.802;2024-03-22T09:06:27;15.23;;;8.48;;
74791;SDS011;63319;46.046;17.802;2024-03-22T09:09:29;14.68;;;9.80;;
74791;SDS011;63319;46.046;17.802;2024-03-22T09:12:31;17.50;;;9.07;;
74791;SDS011;63319;46.046;17.802;2024-03-22T09:15:33;12.20;;;8.07;;
74791;SDS011;63319;46.046;17.802;2024-03-22T09:18:35;13.23;;;8.27;;
74791;SDS011;63319;46.046;17.802;2024-03-22T09:21:37;11.77;;;7.90;;
74791;SDS011;63319;46.046;17.802;2024-03-22T09:24:39;15.07;;;9.15;;
74791;SDS011;63319;46.046;17.802;2024-03-22T09:27:41;14.07;;;8.27;;
74791;SDS011;63319;46.046;17.802;2024-03-22T09:30:43;12.47;;;7.20;;
74791;SDS011;63319;46.046;17.802;2024-03-22T09:33:46;13.65;;;8.55;;
74791;SDS011;63319;46.046;17.802;2024-03-22T09:36:48;15.35;;;8.60;;
74791;SDS011;63319;46.046;17.802;2024-03-22T09:39:49;13.95;;;8.07;;
74791;SDS011;63319;46.046;17.802;2024-03-22T09:42:52;15.40;;;8.30;;
74791;SDS011;63319;46.046;17.802;2024-03-22T09:45:55;14.73;;;8.60;;
74791;SDS011;63319;46.046;17.802;2024-03-22T09:48:57;14.20;;;9.00;;
74791;SDS011;63319;46.046;17.802;2024-03-22T09:52:02;14.63;;;8.82;;
74791;SDS011;63319;46.046;17.802;2024-03-22T09:55:06;13.85;;;8.82;;
74791;SDS011;63319;46.046;17.802;2024-03-22T09:58:10;15.37;;;9.50;;
74791;SDS011;63319;46.046;17.802;2024-03-22T10:01:13;15.03;;;8.87;;
74791;SDS011;63319;46.046;17.802;2024-03-22T10:04:16;15.82;;;10.18;;
74791;SDS011;63319;46.046;17.802;2024-03-22T10:07:18;14.55;;;9.32;;
74791;SDS011;63319;46.046;17.802;2024-03-22T10:10:20;15.50;;;9.55;;
74791;SDS011;63319;46.046;17.802;2024-03-22T10:13:23;17.03;;;9.70;;
74791;SDS011;63319;46.046;17.802;2024-03-22T10:16:26;18.20;;;11.27;;
74791;SDS011;63319;46.046;17.802;2024-03-22T10:19:28;21.98;;;13.38;;
74791;SDS011;63319;46.046;17.802;2024-03-22T10:22:31;23.77;;;10.85;;
74791;SDS011;63319;46.046;17.802;2024-03-22T10:25:34;18.02;;;9.10;;
74791;SDS011;63319;46.046;17.802;2024-03-22T10:28:37;13.73;;;7.83;;
74791;SDS011;63319;46.046;17.802;2024-03-22T10:31:47;16.27;;;9.47;;
74791;SDS011;63319;46.046;17.802;2024-03-22T10:34:53;14.55;;;8.82;;
74791;SDS011;63319;46.046;17.802;2024-03-22T10:37:56;16.35;;;9.25;;
74791;SDS011;63319;46.046;17.802;2024-03-22T10:40:59;12.35;;;8.50;;
74791;SDS011;63319;46.046;17.802;2024-03-22T10:44:02;13.13;;;8.70;;
74791;SDS011;63319;46.046;17.802;2024-03-22T10:47:06;12.40;;;8.77;;
74791;SDS011;63319;46.046;17.802;2024-03-22T10:50:11;13.38;;;7.75;;
74791;SDS011;63319;46.046;17.802;2024-03-22T10:53:19;19.27;;;7.80;;
74791;SDS011;63319;46.046;17.802;2024-03-22T10:56:25;14.90;;;7.78;;
74791;SDS011;63319;46.046;17.802;2024-03-22T10:59:33;11.57;;;8.00;;
74791;SDS011;63319;46.046;17.802;2024-03-22T11:02:36;13.27;;;8.70;;
74791;SDS011;63319;46.046;17.802;2024-03-22T11:05:49;14.85;;;9.52;;
74791;SDS011;63319;46.046;17.802;2024-03-22T11:08:59;16.80;;;8.32;;
74791;SDS011;63319;46.046;17.802;2024-03-22T11:12:20;15.30;;;8.27;;
74791;SDS011;63319;46.046;17.802;2024-03-22T11:15:23;12.67;;;8.47;;
74791;SDS011;63319;46.046;17.802;2024-03-22T11:18:25;12.80;;;7.87;;
74791;SDS011;63319;46.046;17.802;2024-03-22T11:21:27;15.05;;;8.38;;
74791;SDS011;63319;46.046;17.802;2024-03-22T11:24:32;13.48;;;9.20;;
74791;SDS011;63319;46.046;17.802;2024-03-22T11:27:35;13.88;;;8.68;;
74791;SDS011;63319;46.046;17.802;2024-03-22T11:30:37;15.53;;;8.33;;
74791;SDS011;63319;46.046;17.802;2024-03-22T11:33:40;13.53;;;8.30;;
74791;SDS011;63319;46.046;17.802;2024-03-22T11:36:42;13.68;;;7.53;;
74791;SDS011;63319;46.046;17.802;2024-03-22T11:39:44;12.05;;;8.27;;
74791;SDS011;63319;46.046;17.802;2024-03-22T11:42:47;14.25;;;8.43;;
74791;SDS011;63319;46.046;17.802;2024-03-22T11:45:52;12.67;;;8.03;;
74791;SDS011;63319;46.046;17.802;2024-03-22T11:48:55;14.73;;;9.23;;
74791;SDS011;63319;46.046;17.802;2024-03-22T11:52:00;15.00;;;9.02;;
74791;SDS011;63319;46.046;17.802;2024-03-22T11:55:03;12.18;;;7.93;;
74791;SDS011;63319;46.046;17.802;2024-03-22T11:58:08;13.32;;;8.93;;
74791;SDS011;63319;46.046;17.802;2024-03-22T12:01:12;14.87;;;8.97;;
74791;SDS011;63319;46.046;17.802;2024-03-22T12:04:14;15.53;;;8.00;;
74791;SDS011;63319;46.046;17.802;2024-03-22T12:07:17;11.82;;;7.38;;
74791;SDS011;63319;46.046;17.802;2024-03-22T12:10:19;14.20;;;8.57;;
74791;SDS011;63319;46.046;17.802;2024-03-22T12:13:22;14.68;;;8.40;;
74791;SDS011;63319;46.046;17.802;2024-03-22T12:16:24;14.67;;;8.37;;
74791;SDS011;63319;46.046;17.802;2024-03-22T12:19:26;13.10;;;7.63;;
74791;SDS011;63319;46.046;17.802;2024-03-22T12:22:28;16.80;;;9.30;;
74791;SDS011;63319;46.046;17.802;2024-03-22T12:25:30;14.88;;;8.48;;
74791;SDS011;63319;46.046;17.802;2024-03-22T12:28:32;15.27;;;8.23;;
74791;SDS011;63319;46.046;17.802;2024-03-22T12:31:34;14.20;;;9.13;;
74791;SDS011;63319;46.046;17.802;2024-03-22T12:34:36;17.13;;;10.60;;
74791;SDS011;63319;46.046;17.802;2024-03-22T12:37:39;17.42;;;8.60;;
74791;SDS011;63319;46.046;17.802;2024-03-22T12:40:41;14.93;;;8.48;;
74791;SDS011;63319;46.046;17.802;2024-03-22T12:43:43;10.98;;;6.95;;
74791;SDS011;63319;46.046;17.802;2024-03-22T12:46:45;16.23;;;8.07;;
74791;SDS011;63319;46.046;17.802;2024-03-22T12:49:47;12.30;;;7.50;;
74791;SDS011;63319;46.046;17.802;2024-03-22T12:52:49;12.25;;;7.05;;
74791;SDS011;63319;46.046;17.802;2024-03-22T12:56:09;11.05;;;7.78;;
74791;SDS011;63319;46.046;17.802;2024-03-22T12:59:12;12.55;;;6.55;;
74791;SDS011;63319;46.046;17.802;2024-03-22T13:02:14;14.60;;;7.63;;
74791;SDS011;63319;46.046;17.802;2024-03-22T13:05:16;14.90;;;7.43;;
74791;SDS011;63319;46.046;17.802;2024-03-22T13:08:18;13.93;;;7.07;;
74791;SDS011;63319;46.046;17.802;2024-03-22T13:11:21;12.40;;;8.00;;
74791;SDS011;63319;46.046;17.802;2024-03-22T13:14:23;14.93;;;7.72;;
74791;SDS011;63319;46.046;17.802;2024-03-22T13:17:25;13.10;;;7.13;;
74791;SDS011;63319;46.046;17.802;2024-03-22T13:20:27;12.97;;;6.93;;
74791;SDS011;63319;46.046;17.802;2024-03-22T13:23:29;10.80;;;6.75;;
74791;SDS011;63319;46.046;17.802;2024-03-22T13:26:31;13.20;;;7.50;;
74791;SDS011;63319;46.046;17.802;2024-03-22T13:29:32;15.40;;;7.75;;
74791;SDS011;63319;46.046;17.802;2024-03-22T13:32:34;14.53;;;7.83;;
74791;SDS011;63319;46.046;17.802;2024-03-22T13:35:36;10.67;;;6.67;;
74791;SDS011;63319;46.046;17.802;2024-03-22T13:38:38;12.25;;;6.45;;
74791;SDS011;63319;46.046;17.802;2024-03-22T13:41:40;11.10;;;6.80;;
74791;SDS011;63319;46.046;17.802;2024-03-22T13:44:42;13.80;;;8.27;;
74791;SDS011;63319;46.046;17.802;2024-03-22T13:47:44;13.00;;;7.60;;
74791;SDS011;63319;46.046;17.802;2024-03-22T13:50:46;14.13;;;6.27;;
74791;SDS011;63319;46.046;17.802;2024-03-22T13:53:48;10.50;;;7.10;;
74791;SDS011;63319;46.046;17.802;2024-03-22T13:56:50;13.52;;;7.18;;
74791;SDS011;63319;46.046;17.802;2024-03-22T13:59:51;16.30;;;6.25;;
74791;SDS011;63319;46.046;17.802;2024-03-22T14:02:53;15.57;;;6.17;;
74791;SDS011;63319;46.046;17.802;2024-03-22T14:05:57;10.23;;;5.70;;
74791;SDS011;63319;46.046;17.802;2024-03-22T14:08:59;10.45;;;5.55;;
74791;SDS011;63319;46.046;17.802;2024-03-22T14:12:04;10.90;;;5.68;;
74791;SDS011;63319;46.046;17.802;2024-03-22T14:15:08;11.75;;;5.85;;
74791;SDS011;63319;46.046;17.802;2024-03-22T14:18:10;8.10;;;4.43;;
74791;SDS011;63319;46.046;17.802;2024-03-22T14:21:11;10.23;;;5.43;;
74791;SDS011;63319;46.046;17.802;2024-03-22T14:24:16;11.25;;;5.03;;
74791;SDS011;63319;46.046;17.802;2024-03-22T14:27:18;8.80;;;4.47;;
74791;SDS011;63319;46.046;17.802;2024-03-22T14:30:20;10.57;;;3.85;;
74791;SDS011;63319;46.046;17.802;2024-03-22T14:33:22;6.70;;;3.60;;
74791;SDS011;63319;46.046;17.802;2024-03-22T14:36:24;7.80;;;4.03;;
74791;SDS011;63319;46.046;17.802;2024-03-22T14:39:26;7.25;;;3.15;;
74791;SDS011;63319;46.046;17.802;2024-03-22T14:42:28;7.57;;;3.47;;
74791;SDS011;63319;46.046;17.802;2024-03-22T14:45:30;8.75;;;3.17;;
74791;SDS011;63319;46.046;17.802;2024-03-22T14:48:32;6.80;;;3.67;;
74791;SDS011;63319;46.046;17.802;2024-03-22T14:51:52;9.23;;;3.33;;
74791;SDS011;63319;46.046;17.802;2024-03-22T14:54:54;7.00;;;4.00;;
74791;SDS011;63319;46.046;17.802;2024-03-22T14:57:56;6.55;;;3.83;;
74791;SDS011;63319;46.046;17.802;2024-03-22T15:00:59;6.68;;;3.20;;
74791;SDS011;63319;46.046;17.802;2024-03-22T15:04:02;9.13;;;3.33;;
74791;SDS011;63319;46.046;17.802;2024-03-22T15:07:04;7.40;;;3.23;;
74791;SDS011;63319;46.046;17.802;2024-03-22T15:10:06;5.45;;;2.40;;
74791;SDS011;63319;46.046;17.802;2024-03-22T15:13:08;5.68;;;2.72;;
74791;SDS011;63319;46.046;17.802;2024-03-22T15:16:10;5.70;;;3.00;;
74791;SDS011;63319;46.046;17.802;2024-03-22T15:19:12;4.97;;;2.50;;
74791;SDS011;63319;46.046;17.802;2024-03-22T15:22:14;8.20;;;2.80;;
74791;SDS011;63319;46.046;17.802;2024-03-22T15:25:19;8.88;;;2.78;;
74791;SDS011;63319;46.046;17.802;2024-03-22T15:28:20;7.32;;;3.47;;
74791;SDS011;63319;46.046;17.802;2024-03-22T15:31:22;8.25;;;2.75;;
74791;SDS011;63319;46.046;17.802;2024-03-22T15:34:24;7.67;;;2.77;;
74791;SDS011;63319;46.046;17.802;2024-03-22T15:37:26;8.73;;;5.13;;
74791;SDS011;63319;46.046;17.802;2024-03-22T15:40:28;7.72;;;3.03;;
74791;SDS011;63319;46.046;17.802;2024-03-22T15:43:30;7.68;;;3.33;;
74791;SDS011;63319;46.046;17.802;2024-03-22T15:46:31;6.88;;;3.00;;
74791;SDS011;63319;46.046;17.802;2024-03-22T15:49:33;7.30;;;3.30;;
74791;SDS011;63319;46.046;17.802;2024-03-22T15:52:35;8.03;;;3.90;;
74791;SDS011;63319;46.046;17.802;2024-03-22T15:55:40;7.57;;;3.97;;
74791;SDS011;63319;46.046;17.802;2024-03-22T15:58:41;10.85;;;4.70;;
74791;SDS011;63319;46.046;17.802;2024-03-22T16:01:44;8.55;;;3.60;;
74791;SDS011;63319;46.046;17.802;2024-03-22T16:04:47;7.40;;;3.97;;
74791;SDS011;63319;46.046;17.802;2024-03-22T16:07:49;6.77;;;3.00;;
74791;SDS011;63319;46.046;17.802;2024-03-22T16:10:51;7.22;;;3.65;;
74791;SDS011;63319;46.046;17.802;2024-03-22T16:13:53;8.13;;;4.25;;
74791;SDS011;63319;46.046;17.802;2024-03-22T16:16:55;7.10;;;3.78;;
74791;SDS011;63319;46.046;17.802;2024-03-22T16:19:58;10.47;;;4.40;;
74791;SDS011;63319;46.046;17.802;2024-03-22T16:23:00;9.32;;;4.63;;
74791;SDS011;63319;46.046;17.802;2024-03-22T16:26:04;10.13;;;3.85;;
74791;SDS011;63319;46.046;17.802;2024-03-22T16:29:06;7.97;;;3.83;;
74791;SDS011;63319;46.046;17.802;2024-03-22T16:32:09;17.07;;;5.00;;
74791;SDS011;63319;46.046;17.802;2024-03-22T16:35:13;13.20;;;4.43;;
74791;SDS011;63319;46.046;17.802;2024-03-22T16:38:16;12.75;;;6.03;;
74791;SDS011;63319;46.046;17.802;2024-03-22T16:41:17;21.13;;;7.47;;
74791;SDS011;63319;46.046;17.802;2024-03-22T16:44:19;14.35;;;6.53;;
74791;SDS011;63319;46.046;17.802;2024-03-22T16:47:21;12.27;;;5.50;;
74791;SDS011;63319;46.046;17.802;2024-03-22T16:50:23;15.77;;;6.32;;
74791;SDS011;63319;46.046;17.802;2024-03-22T16:53:25;11.45;;;6.68;;
74791;SDS011;63319;46.046;17.802;2024-03-22T16:56:27;15.02;;;6.13;;
74791;SDS011;63319;46.046;17.802;2024-03-22T16:59:28;11.73;;;5.40;;
74791;SDS011;63319;46.046;17.802;2024-03-22T17:02:30;10.18;;;5.30;;
74791;SDS011;63319;46.046;17.802;2024-03-22T17:05:33;14.63;;;5.93;;
74791;SDS011;63319;46.046;17.802;2024-03-22T17:08:35;16.90;;;9.38;;
74791;SDS011;63319;46.046;17.802;2024-03-22T17:11:37;18.23;;;9.43;;
74791;SDS011;63319;46.046;17.802;2024-03-22T17:14:38;15.90;;;7.63;;
74791;SDS011;63319;46.046;17.802;2024-03-22T17:17:40;18.75;;;8.20;;
74791;SDS011;63319;46.046;17.802;2024-03-22T17:20:42;17.00;;;8.35;;
74791;SDS011;63319;46.046;17.802;2024-03-22T17:23:44;15.30;;;8.07;;
74791;SDS011;63319;46.046;17.802;2024-03-22T17:26:46;12.67;;;7.37;;
74791;SDS011;63319;46.046;17.802;2024-03-22T17:29:48;14.45;;;7.03;;
74791;SDS011;63319;46.046;17.802;2024-03-22T17:32:50;15.05;;;6.93;;
74791;SDS011;63319;46.046;17.802;2024-03-22T17:35:52;12.95;;;7.05;;
74791;SDS011;63319;46.046;17.802;2024-03-22T17:38:54;17.13;;;8.93;;
74791;SDS011;63319;46.046;17.802;2024-03-22T17:41:57;19.27;;;10.60;;
74791;SDS011;63319;46.046;17.802;2024-03-22T17:44:59;25.20;;;11.02;;